Aviation Digital Data Service (ADDS)

Output produced by METARs form (1523 UTC 06 February 2016)
found at http://aviationweather.gov/adds/metars/
 
KEWN 061138Z 0612/0712 02007KT P6SM SCT070 SCT250 
     FM062100 03007KT P6SM BKN070 
     FM070800 01015G21KT P6SM -RA BKN040